HRHO2: North Canadian River

                                SHEF ID:       HRHO2     North Canadian River near Harrah
STATION TYPE:
Regulating: Stage = 15.00, Flow = 8563

STAGE RIV-FLOW WTR-TEMP DIS-OXY PH CONDUCT BAT-LOAD
ft cfs F mg/l su umho/cm volt
Ccp-Rev Ccp-Rev Ccp-Rev Ccp-Rev Ccp-Rev Ccp-Rev Ccp-Rev
(America/Chicago)
05/04 00:00 3.22 120 68.45 6.95 8.07 878 12.06
05/04 01:00 3.22 120 67.35 6.94 7.99 883 12.06
05/04 02:00 3.22 120 66.38 6.80 7.93 883 12.05
05/04 03:00 3.22 120 65.44 6.79 7.88 884 12.04
05/04 04:00 3.22 120 64.53 6.91 7.84 886 12.04
05/04 05:00 3.23 122 63.68 6.91 7.79 887 12.02
05/04 06:00 3.23 122 63.03 7.15 7.72 890 12.00
05/04 07:00 3.24 123 62.62 7.28 7.77 891 11.99
05/04 08:00 3.25 125 62.82 8.11 7.87 892 12.00
05/04 09:00 3.25 125 64.04 8.94 7.93 895 12.11
05/04 10:00 3.26 127 66.22 9.54 8.05 896 12.33
05/04 11:00 3.26 127 68.88 10.22 8.15 896 12.73
05/04 12:00 3.26 127 71.69 10.69 8.25 881 13.03
05/04 13:00 3.26 127 74.43 10.87 8.35 891 12.99
05/04 14:00 3.26 127 76.59 10.94 8.34 895 12.95
05/04 15:00 3.27 129 78.31 11.00 8.49 893 13.03
05/04 16:00 3.27 129 78.49 10.86 8.48 881 13.12
05/04 17:00 3.27 129 78.06 10.67 8.53 886 13.11
05/04 18:00 3.27 129 77.45 10.48 8.58 882 13.03
05/04 19:00 3.26 127 76.26 9.81 8.56 878 12.93
05/04 20:00 3.25 125 74.84 8.55 8.50 876 12.72
05/04 21:00 3.24 123 73.58 7.61 8.47 875 12.40
05/04 22:00 3.23 122 72.37 6.99 8.33 875 12.21
05/04 23:00 3.23 122 71.82 6.89 8.31 874 12.08
Data processed at Tue 05May2026 04:25 GMT

NOTICE: If you are parsing this page

Please convert to using our Data API. Starting early 2026 we will be migrating to: https://water.usace.army.mil with modern pages rendered in JavaScript. When this migration completes you will no longer be able to scrape this page! CWMSDataAPI (CDA)

Timeseries IDs (TSIDs)

TSIDs used from left to right in the data table
HARR.Stage.Inst.1Hour.0.Ccp-Rev
HARR.Flow.Inst.1Hour.0.Ccp-Rev
HARR.Temp-Water.Inst.1Hour.0.Ccp-Rev
HARR.Conc-DO.Inst.1Hour.0.Ccp-Rev
HARR.pH.Inst.1Hour.0.Ccp-Rev
HARR.Cond-Water.Inst.1Hour.0.Ccp-Rev
HARR.Volt-Battery Load.Inst.1Hour.0.Ccp-Rev

                            

All information presented herein is the property of the government of the United States of America and may be revised or deleted at any time without prior notice. Dissemination of this information without the expressed written consent of the Public Affairs Office, Tulsa District U.S. Army Corps of Engineers is strictly prohibited. These data are gathered electronically and, as presented, have NOT undergone any form of quality control. These data are NOT guaranteed to be valid or correct.